Time;durP1;ratioP1;P1;durP2;ratioP2;P2;SDS_P1;SDS_P2;PMS_P1;PMS_P2;Temp;Humidity;BMP_temperature;BMP_pressure;BME280_temperature;BME280_humidity;BME280_pressure;Samples;Min_cycle;Max_cycle;Signal;HPM_P1;HPM_P2
2023/04/28 00:01:16;;;;;;;1.70;0.90;;;20.70;30.10;;;;;;5047094;28;20083;-62
2023/04/28 00:03:42;;;;;;;0.98;0.88;;;20.80;30.20;;;;;;5044905;28;20061;-60
2023/04/28 00:06:08;;;;;;;2.05;1.17;;;20.80;30.20;;;;;;5044706;28;20083;-62
2023/04/28 00:08:34;;;;;;;3.03;0.90;;;20.70;30.10;;;;;;5042608;28;20089;-61
2023/04/28 00:11:00;;;;;;;1.25;0.90;;;20.70;30.10;;;;;;5043451;28;20047;-62
2023/04/28 00:13:25;;;;;;;1.25;0.82;;;20.70;30.10;;;;;;5043489;28;20028;-61
2023/04/28 00:15:52;;;;;;;1.00;0.80;;;20.70;30.10;;;;;;5044373;28;20166;-61
2023/04/28 00:18:19;;;;;;;2.65;0.85;;;20.70;30.10;;;;;;5045040;28;20029;-63
2023/04/28 00:20:45;;;;;;;1.23;0.82;;;20.70;30.20;;;;;;5042366;28;20116;-61
2023/04/28 00:23:11;;;;;;;2.50;0.93;;;20.70;30.20;;;;;;5047844;28;20059;-61
2023/04/28 00:25:36;;;;;;;2.03;0.80;;;20.70;30.20;;;;;;5046150;28;20031;-59
2023/04/28 00:28:02;;;;;;;1.98;0.77;;;20.70;30.20;;;;;;5043571;28;21675;-60
2023/04/28 00:30:31;;;;;;;1.55;0.85;;;20.70;30.20;;;;;;5045727;28;20048;-60
2023/04/28 00:32:57;;;;;;;2.03;1.00;;;20.70;30.20;;;;;;5043035;28;20290;-62
2023/04/28 00:35:23;;;;;;;1.83;0.90;;;20.70;30.20;;;;;;5068583;28;20070;-60
2023/04/28 00:37:49;;;;;;;1.40;0.70;;;20.70;30.20;;;;;;5037518;28;20123;-60
2023/04/28 00:40:15;;;;;;;1.58;1.05;;;20.70;30.20;;;;;;5042726;28;20498;-61
2023/04/28 00:42:41;;;;;;;1.05;0.75;;;20.70;30.20;;;;;;5041794;28;20039;-59
2023/04/28 00:45:07;;;;;;;1.23;0.73;;;20.60;30.10;;;;;;5044918;28;20162;-61
2023/04/28 00:47:35;;;;;;;1.00;0.75;;;20.70;30.20;;;;;;5045660;28;20044;-59
2023/04/28 00:50:02;;;;;;;1.80;0.70;;;20.70;30.20;;;;;;5045506;28;20037;-60
2023/04/28 00:52:28;;;;;;;1.73;0.93;;;20.70;30.20;;;;;;5044024;28;20422;-61
2023/04/28 00:54:55;;;;;;;1.98;0.93;;;20.60;30.10;;;;;;5043642;28;20112;-60
2023/04/28 00:57:22;;;;;;;2.25;1.00;;;20.70;30.20;;;;;;5046592;28;20073;-60
2023/04/28 00:59:48;;;;;;;2.33;0.98;;;20.60;30.10;;;;;;5042101;28;20060;-61
2023/04/28 01:02:17;;;;;;;2.35;0.80;;;20.60;30.60;;;;;;5039648;28;20385;-60
2023/04/28 01:04:44;;;;;;;1.83;0.82;;;20.60;30.10;;;;;;5042631;28;20109;-60
2023/04/28 01:07:11;;;;;;;1.10;0.75;;;20.60;30.00;;;;;;5041939;28;20303;-62
2023/04/28 01:09:37;;;;;;;1.50;1.02;;;20.60;30.00;;;;;;5043187;28;20111;-63
2023/04/28 01:12:04;;;;;;;1.33;0.80;;;20.60;30.00;;;;;;5039805;28;20106;-61
2023/04/28 01:14:41;;;;;;;2.50;1.15;;;20.60;30.00;;;;;;5044353;28;20040;-61
2023/04/28 01:17:07;;;;;;;1.35;0.80;;;20.60;30.00;;;;;;5052290;28;20032;-61
2023/04/28 01:19:33;;;;;;;1.88;1.00;;;20.70;30.00;;;;;;5045039;28;20029;-60
2023/04/28 01:21:59;;;;;;;1.30;0.80;;;20.70;30.00;;;;;;5043627;28;20318;-62
2023/04/28 01:24:25;;;;;;;1.88;1.10;;;20.70;30.00;;;;;;5044764;28;20724;-61
2023/04/28 01:26:52;;;;;;;1.58;1.00;;;20.70;30.10;;;;;;5044156;28;20463;-60
2023/04/28 01:29:17;;;;;;;1.45;0.77;;;20.70;30.10;;;;;;5043041;28;20052;-61
2023/04/28 01:31:43;;;;;;;1.38;0.75;;;20.70;30.10;;;;;;5042574;28;20111;-60
2023/04/28 01:34:09;;;;;;;1.88;0.85;;;20.70;30.20;;;;;;5045264;28;20028;-62
2023/04/28 01:36:35;;;;;;;1.00;0.80;;;20.70;30.20;;;;;;5042735;28;20051;-62
2023/04/28 01:39:02;;;;;;;1.20;0.80;;;20.70;30.30;;;;;;5069235;28;20446;-62
2023/04/28 01:41:28;;;;;;;1.92;1.00;;;20.70;30.30;;;;;;5044108;28;20099;-61
2023/04/28 01:43:54;;;;;;;1.10;0.90;;;20.70;30.40;;;;;;5043534;28;20048;-61
2023/04/28 01:46:20;;;;;;;2.78;0.90;;;20.70;30.40;;;;;;5042887;28;20447;-61
2023/04/28 01:48:46;;;;;;;1.05;0.77;;;20.70;30.40;;;;;;5045480;28;20048;-61
2023/04/28 01:51:12;;;;;;;1.83;0.93;;;20.70;30.40;;;;;;5047690;28;20039;-61
2023/04/28 01:53:38;;;;;;;1.42;0.80;;;20.70;30.40;;;;;;5046572;28;20030;-60
2023/04/28 01:56:04;;;;;;;1.70;1.25;;;20.70;30.50;;;;;;5047555;28;20032;-61
2023/04/28 01:58:30;;;;;;;1.55;1.00;;;20.70;30.50;;;;;;5044778;28;20037;-59
2023/04/28 02:00:57;;;;;;;3.78;1.13;;;20.70;30.50;;;;;;5047568;28;20025;-61
2023/04/28 02:03:23;;;;;;;1.48;0.90;;;20.70;30.50;;;;;;5045070;28;20466;-61
2023/04/28 02:05:49;;;;;;;1.38;0.70;;;20.70;30.40;;;;;;5048630;28;20025;-61
2023/04/28 02:08:15;;;;;;;1.83;0.82;;;20.70;30.50;;;;;;5050193;28;20032;-62
2023/04/28 02:10:40;;;;;;;1.10;0.80;;;20.70;30.50;;;;;;5048943;28;20078;-60
2023/04/28 02:13:07;;;;;;;2.15;0.93;;;20.80;30.50;;;;;;5047557;28;20131;-60
2023/04/28 02:15:34;;;;;;;1.35;0.98;;;20.70;30.50;;;;;;5029489;28;20111;-61
2023/04/28 02:18:00;;;;;;;1.58;1.00;;;20.70;30.60;;;;;;5047970;28;20437;-60
2023/04/28 02:20:26;;;;;;;1.05;0.75;;;20.80;30.60;;;;;;5047048;28;20024;-59
2023/04/28 02:22:53;;;;;;;2.10;0.90;;;20.80;30.60;;;;;;5043158;28;20172;-62
2023/04/28 02:25:19;;;;;;;0.85;0.68;;;20.80;30.70;;;;;;5048214;28;20107;-59
2023/04/28 02:27:45;;;;;;;1.17;0.77;;;20.80;30.70;;;;;;5029441;28;20045;-61
2023/04/28 02:30:11;;;;;;;1.25;0.90;;;20.70;30.60;;;;;;5047999;28;20287;-58
2023/04/28 02:32:37;;;;;;;1.45;1.02;;;20.70;30.60;;;;;;5046674;28;20084;-60
2023/04/28 02:35:03;;;;;;;1.85;1.00;;;20.80;30.70;;;;;;5047745;28;20458;-60
2023/04/28 02:37:29;;;;;;;2.30;0.95;;;20.80;30.60;;;;;;5050080;28;20039;-60
2023/04/28 02:39:55;;;;;;;1.73;0.85;;;20.80;30.60;;;;;;5045325;28;20080;-60
2023/04/28 02:42:21;;;;;;;1.10;0.80;;;20.80;30.60;;;;;;5045833;28;20074;-59
2023/04/28 02:44:47;;;;;;;0.98;0.82;;;20.80;30.60;;;;;;5044888;28;20041;-63
2023/04/28 02:47:13;;;;;;;1.52;0.90;;;20.70;30.50;;;;;;5047675;28;20115;-60
2023/04/28 02:49:39;;;;;;;1.20;0.80;;;20.80;30.50;;;;;;5044356;28;20025;-60
2023/04/28 02:52:04;;;;;;;1.55;0.90;;;20.80;30.50;;;;;;5030807;28;20029;-60
2023/04/28 02:54:32;;;;;;;1.08;0.80;;;20.70;30.50;;;;;;5047362;28;20408;-61
2023/04/28 02:56:58;;;;;;;1.80;0.93;;;20.80;30.50;;;;;;5047328;28;20040;-61
2023/04/28 02:59:25;;;;;;;1.45;1.00;;;20.70;30.40;;;;;;5043767;28;20021;-60
2023/04/28 03:01:51;;;;;;;1.70;0.98;;;20.80;30.40;;;;;;5046908;28;20060;-60
2023/04/28 03:04:17;;;;;;;2.20;1.05;;;20.80;30.40;;;;;;5046587;28;20097;-62
2023/04/28 03:06:43;;;;;;;1.27;0.85;;;20.80;30.40;;;;;;5046461;28;20037;-61
2023/04/28 03:09:09;;;;;;;2.38;1.00;;;20.80;30.40;;;;;;5046629;28;20127;-60
2023/04/28 03:11:35;;;;;;;1.42;0.90;;;20.80;30.40;;;;;;5044415;28;20057;-61
2023/04/28 03:14:02;;;;;;;1.77;1.13;;;20.80;30.40;;;;;;5047137;28;20032;-61
2023/04/28 03:16:28;;;;;;;0.98;0.70;;;20.80;30.40;;;;;;5046089;28;20044;-60
2023/04/28 03:18:54;;;;;;;1.23;1.00;;;20.70;30.30;;;;;;5045395;28;20036;-62
2023/04/28 03:21:20;;;;;;;1.30;0.80;;;20.70;30.30;;;;;;5047334;28;20036;-59
2023/04/28 03:23:46;;;;;;;1.17;0.80;;;20.70;30.40;;;;;;5047404;28;20040;-61
2023/04/28 03:26:13;;;;;;;0.98;0.80;;;20.70;30.30;;;;;;5044226;28;20089;-60
2023/04/28 03:28:39;;;;;;;2.67;0.90;;;20.80;30.40;;;;;;5049125;28;20091;-62
2023/04/28 03:31:05;;;;;;;1.38;0.80;;;20.70;30.30;;;;;;5046816;28;20060;-60
2023/04/28 03:33:30;;;;;;;1.55;0.95;;;20.80;30.40;;;;;;5045393;28;20120;-61
2023/04/28 03:35:58;;;;;;;1.23;0.80;;;20.80;30.40;;;;;;5046114;28;20421;-61
2023/04/28 03:38:24;;;;;;;1.35;0.90;;;20.80;30.40;;;;;;5036333;28;20032;-62
2023/04/28 03:40:50;;;;;;;1.15;0.90;;;20.80;30.30;;;;;;5038545;28;20097;-59
2023/04/28 03:43:36;;;;;;;1.20;0.80;;;20.80;30.40;;;;;;5046925;28;20051;-61
2023/04/28 03:46:19;;;;;;;1.17;0.90;;;20.80;30.40;;;;;;5042276;28;20071;-61
2023/04/28 03:48:45;;;;;;;1.10;0.80;;;20.80;30.40;;;;;;5045994;28;20025;-61
2023/04/28 03:51:12;;;;;;;2.25;1.10;;;20.70;30.40;;;;;;5046068;28;20029;-60
2023/04/28 03:53:38;;;;;;;2.30;1.33;;;20.70;30.40;;;;;;5046225;28;20895;-63
2023/04/28 03:56:04;;;;;;;2.00;1.10;;;20.70;30.40;;;;;;5045914;28;20025;-60
2023/04/28 03:58:30;;;;;;;1.38;0.90;;;20.70;30.40;;;;;;5043925;28;20077;-60
2023/04/28 04:00:55;;;;;;;0.93;0.82;;;20.70;30.40;;;;;;5045400;28;20021;-60
2023/04/28 04:03:24;;;;;;;1.45;1.10;;;20.70;30.50;;;;;;5046371;28;20065;-60
2023/04/28 04:05:50;;;;;;;1.13;0.90;;;20.70;30.50;;;;;;5043823;28;20139;-61
2023/04/28 04:08:16;;;;;;;1.00;0.88;;;20.70;30.50;;;;;;5044613;28;20075;-60
2023/04/28 04:10:42;;;;;;;2.15;1.00;;;20.70;30.50;;;;;;5044517;28;20033;-61
2023/04/28 04:13:08;;;;;;;1.40;1.13;;;20.70;30.50;;;;;;5043361;28;20040;-61
2023/04/28 04:15:34;;;;;;;1.52;1.02;;;20.70;30.60;;;;;;5044521;28;20041;-61
2023/04/28 04:18:00;;;;;;;2.08;0.82;;;20.70;30.60;;;;;;5044764;28;20129;-61
2023/04/28 04:20:34;;;;;;;1.02;0.80;;;20.70;30.60;;;;;;5043841;28;20029;-60
2023/04/28 04:23:00;;;;;;;1.50;1.05;;;20.70;30.60;;;;;;5043602;28;20047;-60
2023/04/28 04:25:27;;;;;;;1.88;0.98;;;20.70;30.60;;;;;;5043806;28;20025;-60
2023/04/28 04:27:53;;;;;;;0.95;0.82;;;20.70;30.70;;;;;;5025495;28;20037;-61
2023/04/28 04:30:19;;;;;;;2.10;0.95;;;20.70;30.70;;;;;;5045414;28;20032;-63
2023/04/28 04:32:45;;;;;;;1.92;1.00;;;20.70;30.70;;;;;;5044777;28;20120;-60
2023/04/28 04:35:11;;;;;;;2.00;1.20;;;20.70;30.80;;;;;;5043002;28;20024;-60
2023/04/28 04:37:37;;;;;;;1.88;1.10;;;20.70;30.90;;;;;;5044239;28;20024;-60
2023/04/28 04:40:04;;;;;;;1.05;0.90;;;20.70;31.00;;;;;;5042833;28;20104;-60
2023/04/28 04:42:36;;;;;;;1.42;1.00;;;20.70;31.00;;;;;;5042855;28;20115;-61
2023/04/28 04:45:06;;;;;;;1.58;0.82;;;20.70;31.10;;;;;;5044959;28;20025;-62
2023/04/28 04:47:32;;;;;;;1.88;1.00;;;20.70;31.10;;;;;;5044402;28;20056;-61
2023/04/28 04:49:57;;;;;;;2.20;1.00;;;20.70;31.20;;;;;;5044557;28;20404;-61
2023/04/28 04:52:23;;;;;;;1.65;0.88;;;20.70;31.20;;;;;;5028064;28;20096;-61
2023/04/28 04:54:50;;;;;;;2.03;0.90;;;20.70;31.20;;;;;;5043694;28;20447;-60
2023/04/28 04:57:16;;;;;;;3.05;1.10;;;20.70;31.20;;;;;;5045483;28;20098;-60
2023/04/28 05:00:04;;;;;;;1.17;1.02;;;20.70;31.30;;;;;;5045101;28;20037;-60
2023/04/28 05:02:30;;;;;;;1.50;1.10;;;20.70;31.30;;;;;;5043467;28;20106;-60
2023/04/28 05:04:57;;;;;;;1.58;1.10;;;20.70;31.30;;;;;;5039852;28;20350;-61
2023/04/28 05:07:25;;;;;;;1.42;1.10;;;20.70;31.30;;;;;;5043963;28;20356;-61
2023/04/28 05:09:51;;;;;;;1.70;1.20;;;20.70;31.40;;;;;;5043814;28;20033;-61
2023/04/28 05:12:17;;;;;;;2.40;1.35;;;20.70;31.40;;;;;;5043766;28;20110;-60
2023/04/28 05:14:43;;;;;;;1.45;1.00;;;20.70;31.50;;;;;;5041787;28;20036;-60
2023/04/28 05:17:09;;;;;;;2.13;1.08;;;20.70;31.50;;;;;;5043004;28;20035;-60
2023/04/28 05:19:37;;;;;;;1.50;1.10;;;20.70;31.60;;;;;;5045072;28;20036;-62
2023/04/28 05:22:03;;;;;;;1.85;1.33;;;20.70;31.60;;;;;;5044415;28;20047;-61
2023/04/28 05:24:30;;;;;;;1.15;1.05;;;20.70;31.70;;;;;;5043350;28;20029;-61
2023/04/28 05:26:58;;;;;;;2.38;1.30;;;20.70;31.80;;;;;;5042077;28;20025;-61
2023/04/28 05:29:24;;;;;;;1.55;1.17;;;20.70;31.80;;;;;;5043341;28;20025;-62
2023/04/28 05:31:49;;;;;;;2.85;1.42;;;20.70;31.90;;;;;;5041647;28;20106;-61
2023/04/28 05:34:16;;;;;;;2.33;1.33;;;20.70;32.00;;;;;;5044690;28;20424;-59
2023/04/28 05:36:42;;;;;;;2.03;1.17;;;20.70;32.00;;;;;;5056567;28;20029;-62
2023/04/28 05:39:10;;;;;;;2.10;1.40;;;20.70;32.00;;;;;;5043263;28;20038;-61
2023/04/28 05:41:37;;;;;;;1.80;1.20;;;20.70;32.20;;;;;;5039226;28;20212;-60
2023/04/28 05:44:05;;;;;;;2.45;1.35;;;20.70;32.30;;;;;;5042200;28;20095;-60
2023/04/28 05:46:31;;;;;;;1.55;1.25;;;20.70;32.30;;;;;;5041274;28;20056;-60
2023/04/28 05:48:58;;;;;;;1.63;1.42;;;20.70;32.40;;;;;;5044391;28;20041;-61
2023/04/28 05:51:26;;;;;;;2.70;1.55;;;20.70;32.50;;;;;;5044108;28;20044;-59
2023/04/28 05:53:52;;;;;;;3.25;1.50;;;20.70;32.50;;;;;;5043502;28;20089;-60
2023/04/28 05:56:19;;;;;;;1.73;1.20;;;20.70;32.60;;;;;;5040693;28;20082;-61
2023/04/28 05:58:49;;;;;;;2.25;1.35;;;20.70;32.70;;;;;;5043128;28;20029;-62
2023/04/28 06:01:16;;;;;;;2.63;1.40;;;20.70;32.80;;;;;;5044490;28;20053;-61
2023/04/28 06:03:42;;;;;;;1.83;1.38;;;20.70;32.90;;;;;;5041661;28;20096;-59
2023/04/28 06:06:11;;;;;;;2.00;1.35;;;20.70;32.90;;;;;;5042856;28;20048;-61
2023/04/28 06:08:37;;;;;;;2.90;1.30;;;20.70;33.00;;;;;;5042788;28;20325;-60
2023/04/28 06:11:04;;;;;;;2.55;1.40;;;20.70;33.10;;;;;;5027672;28;20029;-60
2023/04/28 06:13:30;;;;;;;2.22;1.55;;;20.70;33.20;;;;;;5041532;28;20119;-59
2023/04/28 06:15:56;;;;;;;1.73;1.40;;;20.70;33.30;;;;;;5044004;28;20203;-61
2023/04/28 06:18:23;;;;;;;2.55;1.40;;;20.70;33.40;;;;;;5042045;28;20170;-61
2023/04/28 06:20:49;;;;;;;1.83;1.20;;;20.70;33.50;;;;;;5041538;28;20046;-63
2023/04/28 06:23:15;;;;;;;3.03;1.55;;;20.70;33.70;;;;;;5050154;28;20078;-60
2023/04/28 06:25:44;;;;;;;1.98;1.38;;;20.70;33.80;;;;;;5044198;28;20021;-59
2023/04/28 06:28:12;;;;;;;2.25;1.60;;;20.70;34.00;;;;;;5038988;28;20348;-61
2023/04/28 06:30:38;;;;;;;2.22;1.63;;;20.70;34.10;;;;;;5044448;28;20021;-60
2023/04/28 06:33:04;;;;;;;3.80;1.60;;;20.70;34.30;;;;;;5037427;28;20343;-61
2023/04/28 06:35:30;;;;;;;3.28;1.73;;;20.70;34.40;;;;;;5039514;28;20132;-61
2023/04/28 06:37:55;;;;;;;4.35;1.98;;;20.70;34.60;;;;;;5039745;28;20032;-61
2023/04/28 06:40:21;;;;;;;2.63;1.58;;;20.70;34.80;;;;;;5042786;28;20029;-60
2023/04/28 06:42:53;;;;;;;2.22;1.40;;;20.70;35.00;;;;;;5043842;28;20052;-60
2023/04/28 06:45:33;;;;;;;5.45;1.90;;;20.70;35.20;;;;;;5040058;28;20022;-60
2023/04/28 06:47:59;;;;;;;2.80;1.90;;;20.70;35.40;;;;;;5046450;28;20061;-62
2023/04/28 06:50:25;;;;;;;2.67;1.98;;;20.70;35.50;;;;;;5038967;28;20049;-62
2023/04/28 06:52:51;;;;;;;3.55;1.85;;;20.70;35.70;;;;;;5038442;28;20135;-59
2023/04/28 06:55:17;;;;;;;3.13;2.22;;;20.70;35.90;;;;;;5042054;28;20219;-60
2023/04/28 06:57:43;;;;;;;2.50;2.08;;;20.80;36.10;;;;;;5038334;28;20124;-61
2023/04/28 07:00:16;;;;;;;5.13;2.00;;;20.70;36.20;;;;;;5048806;28;20025;-62
2023/04/28 07:02:42;;;;;;;2.80;1.95;;;20.80;36.40;;;;;;5040116;28;20174;-60
2023/04/28 07:05:08;;;;;;;5.38;2.42;;;20.70;36.40;;;;;;5030074;28;20377;-60
2023/04/28 07:07:35;;;;;;;5.15;2.58;;;20.80;36.50;;;;;;5043550;28;20033;-59
2023/04/28 07:10:01;;;;;;;6.13;2.90;;;20.80;36.50;;;;;;5064978;28;20029;-60
2023/04/28 07:12:27;;;;;;;5.25;3.28;;;20.80;36.70;;;;;;5044748;28;20025;-61
2023/04/28 07:14:52;;;;;;;4.50;3.15;;;20.80;36.70;;;;;;5046235;28;20040;-61
2023/04/28 07:17:18;;;;;;;5.05;3.50;;;20.80;36.80;;;;;;5037340;28;20073;-62
2023/04/28 07:19:44;;;;;;;5.38;3.17;;;20.80;36.90;;;;;;5044711;28;20021;-61
2023/04/28 07:22:10;;;;;;;5.10;3.88;;;20.80;37.10;;;;;;5047225;28;20122;-61
2023/04/28 07:24:36;;;;;;;6.63;4.13;;;20.80;37.20;;;;;;5042274;28;21524;-59
2023/04/28 07:27:03;;;;;;;6.05;4.45;;;20.70;37.20;;;;;;5054026;28;20029;-62
2023/04/28 07:29:32;;;;;;;6.40;4.43;;;20.80;37.40;;;;;;5050854;28;20037;-60
2023/04/28 07:32:03;;;;;;;5.22;4.13;;;20.70;37.60;;;;;;5046775;28;20033;-60
2023/04/28 07:34:30;;;;;;;6.35;4.72;;;20.80;37.80;;;;;;5044473;28;20029;-59
2023/04/28 07:36:57;;;;;;;7.85;4.18;;;20.80;37.90;;;;;;5038557;28;20147;-60
2023/04/28 07:39:22;;;;;;;6.55;4.85;;;20.80;38.00;;;;;;5043325;28;20098;-59
2023/04/28 07:41:48;;;;;;;6.60;4.60;;;20.80;38.10;;;;;;5041342;28;20029;-60
2023/04/28 07:44:14;;;;;;;7.57;4.80;;;20.80;38.10;;;;;;5051326;28;21710;-59
2023/04/28 07:46:40;;;;;;;8.15;4.90;;;20.90;38.10;;;;;;5036633;28;20041;-60
2023/04/28 07:49:07;;;;;;;7.75;5.10;;;20.90;38.10;;;;;;5039715;28;20299;-64
2023/04/28 07:51:33;;;;;;;8.15;5.53;;;21.00;38.20;;;;;;5035662;28;20103;-59
2023/04/28 07:53:59;;;;;;;7.40;5.30;;;21.10;38.20;;;;;;5040348;28;20473;-62
2023/04/28 07:56:25;;;;;;;6.57;5.00;;;21.10;38.20;;;;;;5040586;28;20039;-59
2023/04/28 07:58:51;;;;;;;6.45;4.78;;;21.20;38.20;;;;;;5044550;28;20028;-60
2023/04/28 08:01:17;;;;;;;7.38;4.97;;;21.20;38.20;;;;;;5042201;28;20123;-61
2023/04/28 08:03:43;;;;;;;5.80;4.70;;;21.30;38.20;;;;;;5040866;28;20406;-60
2023/04/28 08:06:09;;;;;;;7.18;5.03;;;21.40;38.30;;;;;;5040727;28;20064;-61
2023/04/28 08:08:35;;;;;;;6.50;4.65;;;21.40;38.30;;;;;;5041547;28;20095;-61
2023/04/28 08:11:01;;;;;;;6.60;4.72;;;21.50;38.20;;;;;;5041815;28;20332;-58
2023/04/28 08:13:27;;;;;;;5.35;4.15;;;21.60;38.30;;;;;;5045198;28;20025;-60
2023/04/28 08:15:55;;;;;;;5.20;3.88;;;21.60;38.20;;;;;;5047432;28;20041;-61
2023/04/28 08:18:22;;;;;;;5.55;4.30;;;21.70;38.20;;;;;;5042811;28;20028;-62
2023/04/28 08:20:47;;;;;;;5.45;3.80;;;21.80;38.20;;;;;;5037546;28;20083;-60
2023/04/28 08:23:20;;;;;;;5.38;3.47;;;21.80;38.20;;;;;;5037600;28;20032;-62
2023/04/28 08:25:46;;;;;;;6.55;3.33;;;21.90;38.10;;;;;;5037589;28;20021;-61
2023/04/28 08:28:13;;;;;;;5.13;3.63;;;21.90;38.10;;;;;;5034454;28;20024;-62
2023/04/28 08:30:39;;;;;;;5.18;3.85;;;22.00;38.10;;;;;;5036452;28;20111;-62
2023/04/28 08:33:05;;;;;;;5.05;4.28;;;22.00;38.10;;;;;;5045028;28;20432;-62
2023/04/28 08:35:31;;;;;;;6.00;3.55;;;22.10;38.10;;;;;;5071530;28;20036;-61
2023/04/28 08:37:57;;;;;;;4.57;3.63;;;22.20;38.10;;;;;;5071421;28;20039;-59
2023/04/28 08:40:24;;;;;;;5.55;3.78;;;22.20;38.10;;;;;;5057026;28;20025;-61
2023/04/28 08:42:50;;;;;;;5.70;3.80;;;22.30;38.10;;;;;;5053302;28;20412;-61
2023/04/28 08:45:16;;;;;;;4.72;3.58;;;22.30;38.10;;;;;;5050773;28;20103;-61
2023/04/28 08:47:46;;;;;;;5.97;3.50;;;22.40;38.20;;;;;;5048038;28;20222;-59
2023/04/28 08:50:13;;;;;;;4.30;3.20;;;22.40;38.20;;;;;;5048248;28;20100;-59
2023/04/28 08:52:40;;;;;;;4.60;3.50;;;22.40;38.10;;;;;;5049896;28;20094;-60
2023/04/28 08:55:11;;;;;;;4.38;3.33;;;22.50;38.20;;;;;;5048544;28;20047;-62
2023/04/28 08:57:41;;;;;;;5.07;3.70;;;22.40;38.10;;;;;;5050037;28;20037;-61
2023/04/28 09:00:08;;;;;;;4.55;3.28;;;22.50;38.10;;;;;;5049046;28;20119;-62
2023/04/28 09:02:36;;;;;;;4.45;3.28;;;22.50;38.10;;;;;;5049325;28;20032;-61
2023/04/28 09:05:03;;;;;;;4.28;3.65;;;22.50;38.10;;;;;;5049845;28;20051;-61
2023/04/28 09:07:29;;;;;;;4.60;3.45;;;22.50;38.10;;;;;;5049803;28;20127;-60
2023/04/28 09:10:22;;;;;;;5.15;3.47;;;22.50;38.70;;;;;;5048652;28;20597;-60
2023/04/28 09:12:51;;;;;;;4.88;3.40;;;22.50;38.10;;;;;;5046354;28;20051;-60
2023/04/28 09:15:30;;;;;;;5.20;3.55;;;22.50;38.10;;;;;;5048541;28;20028;-59
2023/04/28 09:17:57;;;;;;;4.97;3.63;;;22.50;38.20;;;;;;5046811;28;20040;-61
2023/04/28 09:20:25;;;;;;;4.97;3.50;;;22.50;38.30;;;;;;5048173;28;20044;-61
2023/04/28 09:22:52;;;;;;;5.10;3.70;;;22.50;38.40;;;;;;5045543;28;20075;-59
2023/04/28 09:25:20;;;;;;;5.32;3.70;;;22.50;38.50;;;;;;5048267;28;20424;-59
2023/04/28 09:27:46;;;;;;;6.47;4.30;;;22.50;38.60;;;;;;5047925;28;20068;-60
2023/04/28 09:30:12;;;;;;;5.90;3.75;;;22.50;38.70;;;;;;5048201;28;20017;-61
2023/04/28 09:32:38;;;;;;;5.65;3.85;;;22.50;38.80;;;;;;5042160;28;20472;-60
2023/04/28 09:35:06;;;;;;;4.65;3.67;;;22.50;38.80;;;;;;5048405;28;20037;-59
2023/04/28 09:37:33;;;;;;;4.97;4.00;;;22.50;39.30;;;;;;5047507;28;20037;-60
2023/04/28 09:40:17;;;;;;;6.93;4.53;;;22.40;38.70;;;;;;5042298;28;20455;-60
2023/04/28 09:42:45;;;;;;;5.80;4.68;;;22.40;38.80;;;;;;5047810;28;20132;-60
2023/04/28 09:45:11;;;;;;;6.53;4.35;;;22.40;39.00;;;;;;5046433;28;20033;-59
2023/04/28 09:47:40;;;;;;;7.90;4.75;;;22.40;39.10;;;;;;5046854;28;20049;-61
2023/04/28 09:50:11;;;;;;;7.85;4.78;;;22.40;39.20;;;;;;5049821;28;20484;-60
2023/04/28 09:52:37;;;;;;;6.32;4.72;;;22.40;39.30;;;;;;5050569;28;20029;-61
2023/04/28 09:55:05;;;;;;;6.40;4.22;;;22.40;39.40;;;;;;5048121;28;20029;-60
2023/04/28 09:57:34;;;;;;;6.80;5.07;;;22.30;39.40;;;;;;5046825;28;20164;-63
2023/04/28 10:00:05;;;;;;;6.63;5.38;;;22.30;39.50;;;;;;5050195;28;20386;-63
2023/04/28 10:02:34;;;;;;;8.05;5.65;;;22.30;39.50;;;;;;5045244;28;20120;-60
2023/04/28 10:05:00;;;;;;;8.93;5.95;;;22.30;39.60;;;;;;5037404;28;20116;-61
2023/04/28 10:07:27;;;;;;;7.97;5.53;;;22.30;39.70;;;;;;5041983;28;20032;-59
2023/04/28 10:09:55;;;;;;;7.45;5.85;;;22.30;39.80;;;;;;5051533;28;20033;-59
2023/04/28 10:12:22;;;;;;;7.93;6.03;;;22.30;39.90;;;;;;5052675;28;20043;-60
2023/04/28 10:14:49;;;;;;;7.03;5.80;;;22.30;40.00;;;;;;5051550;28;20191;-59
2023/04/28 10:17:16;;;;;;;7.22;6.15;;;22.30;40.00;;;;;;5051722;28;20031;-60
2023/04/28 10:19:47;;;;;;;8.40;6.47;;;22.30;40.10;;;;;;5047658;28;20344;-61
2023/04/28 10:22:38;;;;;;;8.02;6.22;;;22.20;40.10;;;;;;5048806;28;20039;-60
2023/04/28 10:25:13;;;;;;;7.57;6.55;;;22.20;40.20;;;;;;5051974;28;20029;-60
2023/04/28 10:27:42;;;;;;;9.27;6.95;;;22.20;40.30;;;;;;5050138;28;20110;-60
2023/04/28 10:30:16;;;;;;;8.13;6.63;;;22.20;40.40;;;;;;5051493;28;20438;-61
2023/04/28 10:32:42;;;;;;;9.48;6.65;;;22.20;40.50;;;;;;5050545;28;20040;-60
2023/04/28 10:35:20;;;;;;;8.70;6.90;;;22.20;40.60;;;;;;5051717;28;20053;-59
2023/04/28 10:38:08;;;;;;;10.32;8.65;;;22.20;40.70;;;;;;5049781;28;20090;-60
2023/04/28 10:40:40;;;;;;;14.63;11.70;;;22.20;40.80;;;;;;5050057;28;20074;-61
2023/04/28 10:43:08;;;;;;;16.40;13.10;;;22.20;40.90;;;;;;5051722;28;20130;-59
2023/04/28 10:45:52;;;;;;;16.00;14.32;;;22.20;41.10;;;;;;5051752;28;20024;-60
2023/04/28 10:48:19;;;;;;;22.27;16.58;;;22.20;41.30;;;;;;5048458;28;20124;-62
2023/04/28 10:51:06;;;;;;;21.15;16.92;;;22.10;41.30;;;;;;5051735;28;20043;-59
2023/04/28 10:53:58;;;;;;;24.58;18.83;;;22.10;41.60;;;;;;5047300;28;20021;-61
2023/04/28 10:56:25;;;;;;;24.17;18.55;;;22.20;41.80;;;;;;5040646;28;20856;-62
2023/04/28 10:58:55;;;;;;;24.17;20.30;;;22.20;41.90;;;;;;5053010;28;20117;-58
2023/04/28 11:01:33;;;;;;;24.27;19.80;;;22.20;42.10;;;;;;5053645;28;20297;-60
2023/04/28 11:04:10;;;;;;;26.63;20.63;;;22.20;42.20;;;;;;5052045;28;20052;-59
2023/04/28 11:06:41;;;;;;;27.45;22.20;;;22.20;42.30;;;;;;5051224;28;20036;-58
2023/04/28 11:09:18;;;;;;;28.55;23.10;;;22.20;42.40;;;;;;5049689;28;20080;-59
2023/04/28 11:11:59;;;;;;;27.80;23.80;;;22.20;42.50;;;;;;5050014;28;20027;-59
2023/04/28 11:14:25;;;;;;;26.85;22.42;;;22.10;42.60;;;;;;5051600;28;20425;-59
2023/04/28 11:16:58;;;;;;;27.25;23.67;;;22.20;42.70;;;;;;5041776;28;20092;-58
2023/04/28 11:19:27;;;;;;;28.95;25.27;;;22.20;43.50;;;;;;5032512;28;20107;-61
2023/04/28 11:21:56;;;;;;;26.52;22.90;;;22.10;42.90;;;;;;5032464;28;20456;-59
2023/04/28 11:24:26;;;;;;;28.08;22.77;;;22.10;43.10;;;;;;5035475;28;20106;-60
2023/04/28 11:26:52;;;;;;;25.58;21.75;;;22.10;43.10;;;;;;5050643;28;20048;-59
2023/04/28 11:29:34;;;;;;;24.83;20.88;;;22.10;43.10;;;;;;5050537;28;20029;-56
2023/04/28 11:32:00;;;;;;;27.70;22.48;;;22.10;43.30;;;;;;5047412;28;20472;-60
2023/04/28 11:34:26;;;;;;;26.27;22.27;;;22.20;43.40;;;;;;5051584;28;20074;-59
2023/04/28 11:36:53;;;;;;;23.45;20.38;;;22.10;43.40;;;;;;5051945;28;20033;-59
2023/04/28 11:39:29;;;;;;;24.08;19.73;;;22.20;43.60;;;;;;5068476;28;20031;-59
2023/04/28 11:41:56;;;;;;;22.90;19.17;;;22.20;43.60;;;;;;5035790;28;20033;-60
2023/04/28 11:44:26;;;;;;;21.27;18.95;;;22.20;43.70;;;;;;5070995;28;20090;-59
2023/04/28 11:47:01;;;;;;;20.80;18.50;;;22.10;43.70;;;;;;5067038;28;20371;-59
2023/04/28 11:49:29;;;;;;;20.30;18.00;;;22.10;43.80;;;;;;5065984;28;20447;-60
2023/04/28 11:52:05;;;;;;;22.52;17.92;;;22.10;43.90;;;;;;5044112;28;20100;-59
2023/04/28 11:54:31;;;;;;;19.67;16.48;;;22.10;43.90;;;;;;5067016;28;20115;-58
2023/04/28 11:56:59;;;;;;;18.23;16.30;;;22.10;44.00;;;;;;5072278;28;20099;-60
2023/04/28 11:59:34;;;;;;;18.35;15.90;;;22.10;44.10;;;;;;5072240;28;20041;-57
2023/04/28 12:02:06;;;;;;;18.02;15.75;;;22.10;44.20;;;;;;5071749;28;20028;-58
2023/04/28 12:04:42;;;;;;;18.35;15.70;;;22.10;44.20;;;;;;5072039;28;20028;-58
2023/04/28 12:07:19;;;;;;;17.50;14.85;;;22.10;44.30;;;;;;5062787;28;20135;-58
2023/04/28 12:09:48;;;;;;;16.65;13.98;;;22.10;44.30;;;;;;5047660;28;20117;-55
2023/04/28 12:12:32;;;;;;;16.98;14.88;;;22.10;44.30;;;;;;5048818;28;20104;-58
2023/04/28 12:15:04;;;;;;;16.48;14.65;;;22.20;44.40;;;;;;5049097;28;20032;-59
2023/04/28 12:17:32;;;;;;;16.83;14.32;;;22.10;44.50;;;;;;5040925;28;20081;-55
2023/04/28 12:20:00;;;;;;;15.80;13.70;;;22.10;44.50;;;;;;5041130;28;20082;-56
2023/04/28 12:22:26;;;;;;;17.70;15.55;;;22.10;44.60;;;;;;5040930;28;20029;-57
2023/04/28 12:25:12;;;;;;;17.67;15.75;;;22.10;44.60;;;;;;5039263;28;20077;-59
2023/04/28 12:27:39;;;;;;;19.63;15.77;;;22.10;44.70;;;;;;5038584;28;20029;-59
2023/04/28 12:30:20;;;;;;;18.30;15.68;;;22.10;44.70;;;;;;5042022;28;20120;-59
2023/04/28 12:32:47;;;;;;;19.42;15.77;;;22.10;44.70;;;;;;5043766;28;20048;-59
2023/04/28 12:35:13;;;;;;;17.23;14.85;;;22.10;44.80;;;;;;5045354;28;20097;-60
2023/04/28 12:37:40;;;;;;;16.50;14.70;;;22.10;44.80;;;;;;5052090;28;20298;-59
2023/04/28 12:40:07;;;;;;;17.75;15.85;;;22.10;44.90;;;;;;5048233;28;20123;-61
2023/04/28 12:42:33;;;;;;;18.27;15.52;;;22.10;45.00;;;;;;5050098;28;20075;-58
2023/04/28 12:44:59;;;;;;;18.27;14.98;;;22.10;44.90;;;;;;5048917;28;20499;-59
2023/04/28 12:47:25;;;;;;;16.92;15.13;;;22.10;45.00;;;;;;5042766;28;20049;-59